Time;durP1;ratioP1;P1;durP2;ratioP2;P2;SDS_P1;SDS_P2;PMS_P1;PMS_P2;Temp;Humidity;BMP_temperature;BMP_pressure;BME280_temperature;BME280_humidity;BME280_pressure;Samples;Min_cycle;Max_cycle;Signal;HPM_P1;HPM_P2
2021/04/13 04:00:42;;;;;;;20.40;18.27;;;2.50;99.90;;;;;;5865621;23;20532;-67
2021/04/13 04:03:08;;;;;;;19.50;16.80;;;2.50;99.90;;;;;;4996032;28;20800;-68
2021/04/13 04:05:46;;;;;;;17.60;15.80;;;2.40;99.90;;;;;;4996169;28;20450;-67
2021/04/13 04:08:18;;;;;;;18.23;16.10;;;2.40;99.90;;;;;;4996088;28;20438;-67
2021/04/13 04:10:50;;;;;;;19.83;13.93;;;2.30;99.90;;;;;;4997175;28;20997;-67
2021/04/13 04:13:24;;;;;;;16.60;14.80;;;2.30;99.90;;;;;;4996383;28;20816;-67
2021/04/13 04:16:03;;;;;;;16.30;14.63;;;2.30;99.90;;;;;;4996079;28;20472;-66
2021/04/13 04:18:32;;;;;;;17.20;14.63;;;2.30;99.90;;;;;;4996457;28;20481;-66
2021/04/13 04:21:01;;;;;;;14.77;13.37;;;2.30;99.90;;;;;;4995763;28;20485;-67
2021/04/13 04:23:31;;;;;;;18.27;13.50;;;2.30;99.90;;;;;;4995990;28;20457;-67
2021/04/13 04:26:00;;;;;;;15.43;13.77;;;2.30;99.90;;;;;;4995948;28;20476;-67
2021/04/13 04:28:32;;;;;;;13.93;12.43;;;2.30;99.90;;;;;;4995616;28;20458;-69
2021/04/13 04:31:34;;;;;;;13.97;12.67;;;2.30;99.90;;;;;;4995802;28;20478;-67
2021/04/13 04:34:00;;;;;;;15.47;13.83;;;2.30;99.90;;;;;;4995357;28;20456;-68
2021/04/13 04:36:29;;;;;;;15.40;13.80;;;2.40;99.90;;;;;;4995559;28;20480;-68
2021/04/13 04:38:55;;;;;;;19.60;16.20;;;2.40;99.90;;;;;;4995363;28;20557;-66
2021/04/13 04:41:36;;;;;;;16.77;13.67;;;2.30;99.90;;;;;;4995533;28;20478;-67
2021/04/13 04:44:03;;;;;;;16.97;15.03;;;2.40;99.90;;;;;;4995410;28;20533;-67
2021/04/13 04:46:39;;;;;;;19.03;17.03;;;2.40;99.90;;;;;;4995521;28;20508;-67
2021/04/13 04:49:08;;;;;;;20.20;16.47;;;2.40;99.90;;;;;;4995268;28;20434;-66
2021/04/13 04:51:34;;;;;;;20.77;17.57;;;2.40;99.90;;;;;;4994905;28;20474;-67
2021/04/13 04:54:01;;;;;;;16.90;14.90;;;2.40;99.90;;;;;;4995351;28;20458;-66
2021/04/13 04:56:27;;;;;;;20.37;17.20;;;2.40;99.90;;;;;;4994748;28;20485;-67
2021/04/13 04:58:53;;;;;;;18.63;15.07;;;2.40;99.90;;;;;;4995255;28;20454;-67
2021/04/13 05:01:19;;;;;;;18.00;15.70;;;2.40;99.90;;;;;;4995277;28;20481;-67
2021/04/13 05:03:46;;;;;;;16.27;14.53;;;2.40;99.90;;;;;;4997184;28;20485;-67
2021/04/13 05:06:13;;;;;;;16.70;14.90;;;2.40;99.90;;;;;;4999251;28;20548;-68
2021/04/13 05:08:39;;;;;;;14.63;13.13;;;2.40;99.90;;;;;;4999044;28;20486;-68
2021/04/13 05:11:06;;;;;;;14.93;13.53;;;2.40;99.90;;;;;;4999125;28;20482;-67
2021/04/13 05:13:32;;;;;;;15.63;14.03;;;2.50;99.90;;;;;;5001490;28;20876;-69
2021/04/13 05:15:59;;;;;;;14.67;12.67;;;2.50;99.90;;;;;;5015804;28;20458;-70
2021/04/13 05:18:25;;;;;;;15.53;12.00;;;2.50;99.90;;;;;;5017355;28;20461;-70
2021/04/13 05:20:53;;;;;;;13.03;11.70;;;2.60;99.90;;;;;;5016556;28;20482;-69
2021/04/13 05:23:20;;;;;;;13.00;11.70;;;2.60;99.90;;;;;;5017395;28;20460;-69
2021/04/13 05:25:46;;;;;;;12.23;11.03;;;2.70;99.90;;;;;;5009285;28;20453;-69
2021/04/13 05:28:12;;;;;;;12.93;11.50;;;2.80;99.90;;;;;;4997705;28;20952;-68
2021/04/13 05:30:39;;;;;;;11.03;9.93;;;2.90;99.90;;;;;;4996650;28;20481;-69
2021/04/13 05:33:05;;;;;;;11.77;10.00;;;3.00;99.90;;;;;;4996024;28;20512;-69
2021/04/13 05:35:31;;;;;;;11.90;10.70;;;3.10;99.90;;;;;;4995351;28;21014;-69
2021/04/13 05:38:02;;;;;;;12.80;11.13;;;3.20;99.90;;;;;;4995254;28;20461;-67
2021/04/13 05:40:32;;;;;;;11.50;10.33;;;3.40;99.90;;;;;;4995573;28;20449;-69
2021/04/13 05:42:59;;;;;;;10.43;8.87;;;3.50;99.90;;;;;;4994973;28;20450;-69
2021/04/13 05:45:27;;;;;;;11.57;9.73;;;3.60;99.90;;;;;;4995395;28;20516;-68
2021/04/13 05:47:54;;;;;;;10.90;9.83;;;3.80;99.90;;;;;;4999434;28;20786;-68
2021/04/13 05:50:24;;;;;;;11.63;9.20;;;4.00;99.90;;;;;;4999052;28;20515;-69
2021/04/13 05:52:50;;;;;;;8.53;7.77;;;4.20;99.90;;;;;;4998808;28;20465;-69
2021/04/13 05:55:17;;;;;;;12.50;9.97;;;4.60;99.90;;;;;;4998469;28;20995;-69
2021/04/13 05:57:45;;;;;;;13.00;9.20;;;4.70;99.90;;;;;;4998681;28;20947;-69
2021/04/13 06:00:13;;;;;;;11.17;10.00;;;5.00;99.90;;;;;;5001075;28;20453;-69
2021/04/13 06:02:41;;;;;;;9.40;8.60;;;5.40;99.90;;;;;;4999436;28;20450;-69
2021/04/13 06:05:10;;;;;;;9.57;8.73;;;5.80;99.90;;;;;;4999962;28;20851;-69
2021/04/13 06:07:36;;;;;;;9.27;8.47;;;6.10;99.90;;;;;;4999099;28;20434;-69
2021/04/13 06:10:07;;;;;;;10.23;9.13;;;6.60;99.90;;;;;;5000016;28;20453;-70
2021/04/13 06:12:35;;;;;;;9.10;8.23;;;6.80;99.90;;;;;;4999347;28;20473;-69
2021/04/13 06:15:01;;;;;;;9.53;8.20;;;7.40;99.90;;;;;;4999310;28;20501;-69
2021/04/13 06:17:28;;;;;;;8.97;8.07;;;7.70;99.90;;;;;;5000117;28;20511;-68
2021/04/13 06:19:54;;;;;;;8.77;7.97;;;7.90;99.90;;;;;;4998720;28;20454;-69
2021/04/13 06:22:20;;;;;;;9.50;8.70;;;8.10;99.90;;;;;;4999124;28;20481;-70
2021/04/13 06:24:46;;;;;;;9.37;8.47;;;8.10;99.90;;;;;;4998672;28;20811;-69
2021/04/13 06:27:13;;;;;;;8.50;7.90;;;7.50;99.90;;;;;;4998144;28;20940;-69
2021/04/13 06:29:40;;;;;;;8.03;7.43;;;7.80;99.90;;;;;;4999644;28;20784;-70
2021/04/13 06:32:07;;;;;;;10.30;9.23;;;7.80;99.90;;;;;;4998928;28;20477;-68
2021/04/13 06:34:34;;;;;;;9.03;8.13;;;8.00;99.90;;;;;;4998143;28;20956;-68
2021/04/13 06:37:02;;;;;;;9.00;8.20;;;8.10;99.90;;;;;;4998506;28;20512;-68
2021/04/13 06:39:28;;;;;;;9.67;7.93;;;8.20;99.90;;;;;;4997736;28;20508;-68
2021/04/13 06:42:10;;;;;;;9.53;8.20;;;8.30;99.90;;;;;;4998080;28;20511;-67
2021/04/13 06:45:02;;;;;;;8.80;7.63;;;8.10;99.90;;;;;;4997794;28;20442;-68
2021/04/13 06:47:42;;;;;;;8.27;7.57;;;8.80;99.90;;;;;;4997677;28;20445;-67
2021/04/13 06:50:21;;;;;;;10.10;8.27;;;8.60;99.90;;;;;;4999474;28;20448;-67
2021/04/13 06:53:00;;;;;;;8.73;8.03;;;9.10;99.90;;;;;;4997524;28;20446;-68
2021/04/13 06:55:46;;;;;;;7.70;7.10;;;9.30;99.90;;;;;;4997385;28;20466;-68
2021/04/13 06:58:25;;;;;;;8.97;8.27;;;9.70;99.90;;;;;;4997164;28;20454;-68
2021/04/13 07:01:01;;;;;;;9.43;8.67;;;9.80;99.90;;;;;;4996922;28;20507;-68
2021/04/13 07:03:32;;;;;;;8.50;7.80;;;9.70;99.90;;;;;;4997279;28;20438;-68
2021/04/13 07:06:05;;;;;;;8.97;8.27;;;10.20;99.90;;;;;;4997405;28;20492;-67
2021/04/13 07:08:36;;;;;;;9.67;8.43;;;10.50;99.90;;;;;;4997481;28;20442;-69
2021/04/13 07:11:09;;;;;;;8.00;7.40;;;10.60;99.90;;;;;;4997711;28;20488;-67
2021/04/13 07:13:44;;;;;;;9.00;8.20;;;10.50;97.80;;;;;;4999731;28;20437;-67
2021/04/13 07:16:16;;;;;;;11.43;9.40;;;9.90;99.90;;;;;;5001291;28;20465;-67
2021/04/13 07:18:48;;;;;;;9.20;8.50;;;9.10;99.90;;;;;;4998642;28;20444;-67
2021/04/13 07:21:23;;;;;;;10.00;9.03;;;9.00;99.90;;;;;;5000920;28;20493;-67
2021/04/13 07:23:53;;;;;;;9.03;8.20;;;8.60;99.90;;;;;;5000769;28;20970;-67
2021/04/13 07:26:25;;;;;;;10.43;9.43;;;8.50;99.90;;;;;;4998760;28;20439;-68
2021/04/13 07:28:56;;;;;;;9.63;8.73;;;8.40;99.90;;;;;;5000050;28;20448;-66
2021/04/13 07:31:36;;;;;;;9.30;8.50;;;8.40;99.90;;;;;;4998702;28;20477;-68
2021/04/13 07:34:02;;;;;;;9.63;8.83;;;8.50;99.90;;;;;;4996984;28;20476;-67
2021/04/13 07:36:36;;;;;;;9.47;8.77;;;8.70;99.90;;;;;;4997071;28;21018;-67
2021/04/13 07:39:05;;;;;;;9.77;8.87;;;8.80;99.90;;;;;;4997105;28;20470;-67
2021/04/13 07:41:39;;;;;;;11.13;10.13;;;9.10;99.90;;;;;;4996290;28;20855;-67
2021/04/13 07:44:10;;;;;;;10.03;9.23;;;9.50;99.90;;;;;;4996582;28;20448;-67
2021/04/13 07:46:51;;;;;;;12.33;11.33;;;10.00;99.90;;;;;;4996317;28;20781;-68
2021/04/13 07:49:27;;;;;;;10.43;9.53;;;10.70;99.70;;;;;;4996445;28;20438;-68
2021/04/13 07:51:59;;;;;;;11.00;10.20;;;11.50;98.60;;;;;;4996499;28;21050;-67
2021/04/13 07:54:52;;;;;;;11.13;10.10;;;12.20;93.00;;;;;;4996602;28;20946;-68
2021/04/13 07:57:27;;;;;;;10.43;9.63;;;12.30;92.90;;;;;;4994461;28;20453;-68
2021/04/13 08:00:06;;;;;;;10.33;9.57;;;11.90;92.70;;;;;;4996422;28;20452;-69
2021/04/13 08:02:34;;;;;;;10.83;9.93;;;12.50;92.80;;;;;;4996170;28;21050;-67
2021/04/13 08:05:01;;;;;;;10.30;9.60;;;13.30;91.30;;;;;;4996408;28;20450;-67
2021/04/13 08:07:31;;;;;;;9.47;8.77;;;13.40;90.60;;;;;;4995716;28;20454;-67
2021/04/13 08:10:31;;;;;;;10.33;9.53;;;13.50;90.40;;;;;;4995432;28;20450;-67
2021/04/13 08:13:00;;;;;;;11.13;10.23;;;13.90;89.20;;;;;;4995681;28;20492;-68
2021/04/13 08:15:46;;;;;;;9.10;8.50;;;13.90;84.30;;;;;;4995550;28;20528;-68
2021/04/13 08:18:20;;;;;;;9.67;8.97;;;13.60;87.70;;;;;;4995864;28;20799;-67
2021/04/13 08:20:48;;;;;;;9.70;8.90;;;13.70;83.40;;;;;;4995511;28;20481;-67
2021/04/13 08:23:36;;;;;;;10.83;9.80;;;13.90;85.20;;;;;;4995476;28;20449;-67
2021/04/13 08:26:31;;;;;;;11.23;9.90;;;14.10;81.00;;;;;;4995316;28;20777;-67
2021/04/13 08:29:03;;;;;;;10.20;9.43;;;14.10;84.00;;;;;;4995375;28;20481;-67
2021/04/13 08:34:31;;;;;;;10.30;9.50;;;14.80;80.60;;;;;;4995753;28;20922;-68
2021/04/13 08:37:08;;;;;;;11.00;10.10;;;14.80;77.60;;;;;;4995595;28;20485;-67
2021/04/13 08:39:41;;;;;;;10.30;9.50;;;14.70;75.10;;;;;;4995231;28;20513;-68
2021/04/13 08:42:29;;;;;;;9.30;8.60;;;15.20;74.80;;;;;;4995010;28;20485;-68
2021/04/13 08:44:59;;;;;;;10.00;9.20;;;15.90;70.20;;;;;;4995297;28;20462;-67
2021/04/13 08:47:37;;;;;;;12.50;11.40;;;15.50;71.90;;;;;;4995964;28;20489;-68
2021/04/13 08:50:27;;;;;;;9.37;8.67;;;15.70;75.40;;;;;;4995112;28;20429;-68
2021/04/13 08:52:55;;;;;;;9.87;9.17;;;16.40;69.70;;;;;;4995248;28;20514;-69
2021/04/13 08:55:29;;;;;;;11.30;10.17;;;16.10;65.90;;;;;;4995214;28;20483;-69
2021/04/13 08:58:05;;;;;;;10.53;9.80;;;15.60;65.90;;;;;;4995727;28;20446;-69
2021/04/13 09:00:44;;;;;;;10.50;9.70;;;15.50;71.50;;;;;;4995057;28;20457;-69
2021/04/13 09:03:13;;;;;;;9.20;8.50;;;15.80;68.70;;;;;;4995007;28;20438;-68
2021/04/13 09:05:42;;;;;;;9.60;8.83;;;15.40;65.20;;;;;;4995586;28;20446;-69
2021/04/13 09:08:24;;;;;;;8.80;8.20;;;16.00;64.00;;;;;;4995310;28;20457;-69
2021/04/13 09:11:15;;;;;;;8.67;8.07;;;16.60;61.90;;;;;;4994647;28;20458;-69
2021/04/13 09:13:43;;;;;;;9.67;8.87;;;15.90;58.00;;;;;;4994667;28;20442;-69
2021/04/13 09:16:18;;;;;;;8.10;7.60;;;15.20;60.60;;;;;;4994626;28;20481;-68
2021/04/13 09:18:54;;;;;;;8.10;7.60;;;15.20;65.10;;;;;;4995167;28;20434;-69
2021/04/13 09:21:50;;;;;;;8.20;7.60;;;15.90;68.00;;;;;;4995237;28;20492;-68
2021/04/13 09:24:20;;;;;;;8.80;8.00;;;17.10;58.30;;;;;;4961678;28;20469;-69
2021/04/13 09:27:04;;;;;;;8.00;7.50;;;16.70;56.40;;;;;;4994972;28;20539;-69
2021/04/13 09:29:39;;;;;;;7.97;7.47;;;16.90;59.80;;;;;;4995307;28;20553;-69
2021/04/13 09:32:08;;;;;;;8.90;8.20;;;17.50;57.90;;;;;;4994741;28;20469;-68
2021/04/13 09:34:58;;;;;;;8.60;8.10;;;18.00;53.80;;;;;;4995034;28;20461;-69
2021/04/13 09:37:41;;;;;;;10.23;9.43;;;17.10;56.80;;;;;;4994898;28;20430;-69
2021/04/13 09:40:24;;;;;;;10.50;9.70;;;14.70;58.30;;;;;;4994964;28;20438;-68
2021/04/13 09:43:08;;;;;;;9.70;9.00;;;13.20;63.10;;;;;;4995646;28;20434;-69
2021/04/13 09:45:44;;;;;;;8.87;8.20;;;12.50;68.30;;;;;;4997814;28;20469;-69
2021/04/13 09:48:51;;;;;;;10.90;9.90;;;11.80;68.00;;;;;;4995464;28;20974;-71
2021/04/13 09:51:25;;;;;;;10.07;9.07;;;11.10;71.80;;;;;;4994407;28;20469;-69
2021/04/13 09:54:22;;;;;;;9.93;9.13;;;10.50;75.40;;;;;;4994760;28;20430;-69
2021/04/13 09:57:19;;;;;;;8.93;8.13;;;10.80;79.50;;;;;;4994748;28;20470;-68
2021/04/13 10:00:12;;;;;;;8.73;8.00;;;12.10;79.30;;;;;;4994582;28;20469;-69
2021/04/13 10:03:12;;;;;;;7.30;6.73;;;12.90;70.90;;;;;;4991365;28;20481;-68
2021/04/13 10:05:39;;;;;;;7.57;7.07;;;12.60;65.90;;;;;;4993877;28;20481;-67
2021/04/13 10:08:10;;;;;;;7.93;7.40;;;12.80;67.40;;;;;;4994071;28;20458;-68
2021/04/13 10:10:41;;;;;;;9.53;8.60;;;14.00;69.90;;;;;;4994070;28;20484;-68
2021/04/13 10:13:41;;;;;;;8.73;7.93;;;15.10;65.70;;;;;;4994286;28;20469;-68
2021/04/13 10:16:16;;;;;;;8.50;7.83;;;14.40;60.30;;;;;;4994081;28;20469;-69
2021/04/13 10:19:15;;;;;;;7.33;6.83;;;13.00;61.30;;;;;;4994088;28;20908;-69
2021/04/13 10:22:17;;;;;;;8.57;7.97;;;12.90;63.70;;;;;;4993754;28;20473;-69
2021/04/13 10:25:15;;;;;;;9.10;8.23;;;13.70;63.40;;;;;;4994171;28;20473;-69
2021/04/13 10:28:11;;;;;;;7.40;6.80;;;15.10;63.40;;;;;;4994049;28;20532;-69
2021/04/13 10:31:09;;;;;;;7.57;6.97;;;15.90;59.00;;;;;;4994100;28;20470;-67
2021/04/13 10:34:03;;;;;;;7.40;6.83;;;15.70;58.10;;;;;;4997792;28;20450;-68
2021/04/13 10:36:51;;;;;;;6.20;5.80;;;16.30;55.90;;;;;;4996843;28;20484;-68
2021/04/13 10:39:39;;;;;;;26.43;8.80;;;16.60;53.80;;;;;;4997645;28;20253;-68
2021/04/13 10:42:39;;;;;;;6.77;6.27;;;16.80;52.20;;;;;;4997656;28;20477;-68
2021/04/13 10:45:46;;;;;;;7.33;6.83;;;17.00;54.00;;;;;;4972980;28;20871;-69
2021/04/13 10:48:42;;;;;;;6.60;6.10;;;16.80;53.70;;;;;;4997629;28;20812;-69
2021/04/13 10:51:32;;;;;;;7.07;6.63;;;17.20;53.10;;;;;;4997318;28;20894;-68
2021/04/13 10:54:41;;;;;;;7.70;7.00;;;17.70;52.20;;;;;;4997731;28;20505;-68
2021/04/13 10:57:27;;;;;;;7.63;7.13;;;17.80;50.90;;;;;;4997281;28;20442;-68
2021/04/13 11:00:26;;;;;;;7.67;7.17;;;18.20;49.20;;;;;;4997118;28;20925;-69
2021/04/13 11:03:28;;;;;;;6.67;6.27;;;17.50;50.00;;;;;;4997749;28;20434;-69
2021/04/13 11:06:28;;;;;;;6.90;6.40;;;17.60;49.70;;;;;;4974832;28;20912;-68
2021/04/13 11:09:20;;;;;;;7.40;6.80;;;17.20;49.40;;;;;;4999053;28;20434;-68
2021/04/13 11:12:28;;;;;;;6.80;6.30;;;17.60;51.40;;;;;;5004431;28;20524;-68
2021/04/13 11:15:27;;;;;;;7.00;6.57;;;17.20;47.80;;;;;;5005652;28;20430;-68
2021/04/13 11:18:01;;;;;;;7.57;6.93;;;16.60;50.80;;;;;;5010176;28;20442;-68
2021/04/13 11:20:40;;;;;;;6.53;6.10;;;16.10;50.90;;;;;;4997857;28;20445;-68
2021/04/13 11:23:38;;;;;;;7.70;7.00;;;14.90;50.40;;;;;;4997006;28;20442;-68
2021/04/13 11:26:29;;;;;;;6.70;6.20;;;14.10;55.90;;;;;;4996956;28;20461;-68
2021/04/13 11:29:34;;;;;;;5.67;5.27;;;13.20;53.00;;;;;;4968468;28;20453;-68
2021/04/13 11:32:40;;;;;;;6.00;5.50;;;12.80;54.90;;;;;;4996468;28;20481;-68
2021/04/13 11:35:29;;;;;;;5.47;5.07;;;13.00;57.10;;;;;;4996358;28;20469;-68
2021/04/13 11:38:18;;;;;;;4.23;4.03;;;12.40;53.80;;;;;;4996541;28;20442;-68
2021/04/13 11:40:58;;;;;;;5.50;5.10;;;12.10;54.50;;;;;;4996763;28;20809;-68
2021/04/13 11:43:25;;;;;;;5.10;4.80;;;12.00;53.80;;;;;;4995494;28;20434;-68
2021/04/13 11:46:00;;;;;;;4.90;4.50;;;11.70;55.20;;;;;;4996743;28;20501;-68
2021/04/13 11:48:36;;;;;;;6.27;5.77;;;11.80;56.90;;;;;;4996476;28;20444;-68
2021/04/13 11:51:07;;;;;;;5.17;4.67;;;12.10;59.00;;;;;;4996167;28;20473;-66
2021/04/13 11:53:36;;;;;;;4.60;4.20;;;12.40;56.60;;;;;;4995966;28;20438;-66
2021/04/13 11:56:04;;;;;;;3.93;3.63;;;13.20;62.90;;;;;;4995717;28;20477;-68
2021/04/13 11:58:33;;;;;;;4.50;4.10;;;13.50;57.50;;;;;;4996004;28;20462;-69
2021/04/13 12:01:34;;;;;;;4.20;4.00;;;13.40;57.60;;;;;;4995769;28;20645;-67
2021/04/13 12:04:05;;;;;;;4.60;4.30;;;13.80;55.50;;;;;;4996105;28;20457;-69
2021/04/13 12:06:57;;;;;;;5.27;4.87;;;13.70;55.70;;;;;;4995855;28;20464;-69
2021/04/13 12:09:42;;;;;;;5.17;4.77;;;14.00;56.00;;;;;;4995607;28;20997;-69
2021/04/13 12:12:41;;;;;;;6.17;4.20;;;13.90;54.70;;;;;;4995685;28;20509;-69
2021/04/13 12:15:35;;;;;;;4.80;4.40;;;14.00;55.10;;;;;;4995288;28;20453;-69
2021/04/13 12:18:23;;;;;;;4.23;4.03;;;13.50;54.70;;;;;;4996386;28;20441;-69
2021/04/13 12:20:49;;;;;;;4.30;4.00;;;14.10;50.50;;;;;;4995341;28;20481;-69
2021/04/13 12:23:46;;;;;;;5.00;4.70;;;14.00;53.20;;;;;;4995552;28;20953;-68
2021/04/13 12:26:27;;;;;;;4.30;4.07;;;13.80;52.00;;;;;;4996139;28;20457;-68
2021/04/13 12:28:53;;;;;;;4.70;4.40;;;13.80;55.10;;;;;;4995809;28;20446;-68
2021/04/13 12:31:23;;;;;;;4.60;4.30;;;14.10;55.20;;;;;;4995337;28;20481;-68
2021/04/13 12:33:56;;;;;;;5.60;5.10;;;14.00;52.60;;;;;;4995828;28;20492;-67
2021/04/13 12:36:58;;;;;;;4.50;4.30;;;14.20;52.70;;;;;;4996231;28;20827;-67
2021/04/13 12:39:45;;;;;;;5.43;4.90;;;13.60;52.40;;;;;;4996894;28;20446;-67
2021/04/13 12:42:46;;;;;;;6.10;5.50;;;13.00;54.00;;;;;;4995627;28;20881;-67
2021/04/13 12:45:30;;;;;;;5.10;4.70;;;12.50;56.20;;;;;;4995997;28;20438;-67
2021/04/13 12:48:01;;;;;;;4.73;4.33;;;12.10;56.10;;;;;;4995456;28;20442;-68
2021/04/13 12:50:31;;;;;;;3.93;3.63;;;11.80;56.00;;;;;;4995935;28;20434;-68
2021/04/13 12:52:58;;;;;;;4.10;3.80;;;11.50;55.90;;;;;;4995555;28;20967;-68
2021/04/13 12:55:27;;;;;;;3.50;3.30;;;11.20;55.20;;;;;;4994746;28;20984;-68
2021/04/13 12:57:56;;;;;;;3.50;3.20;;;11.00;53.80;;;;;;4995384;28;20462;-69
2021/04/13 13:00:29;;;;;;;4.53;4.23;;;10.60;56.10;;;;;;4994776;28;20458;-68
2021/04/13 13:02:56;;;;;;;4.47;4.17;;;10.30;57.00;;;;;;4995355;28;20844;-68
2021/04/13 13:05:25;;;;;;;5.00;4.50;;;9.90;59.80;;;;;;4995274;28;20450;-68
2021/04/13 13:07:54;;;;;;;4.03;3.70;;;10.00;63.20;;;;;;4995293;28;20512;-68
2021/04/13 13:10:25;;;;;;;4.20;3.90;;;10.20;62.00;;;;;;4995079;28;20493;-69
2021/04/13 13:12:52;;;;;;;3.70;3.40;;;10.30;59.70;;;;;;4996062;28;20466;-69
2021/04/13 13:15:18;;;;;;;3.60;3.40;;;10.70;61.70;;;;;;4994939;28;20481;-69
2021/04/13 13:17:49;;;;;;;3.90;3.47;;;11.20;58.30;;;;;;4995366;28;20458;-69
2021/04/13 13:20:29;;;;;;;3.63;3.43;;;11.50;58.20;;;;;;4994742;28;20442;-69
2021/04/13 13:22:55;;;;;;;3.47;3.17;;;11.90;59.80;;;;;;4995101;28;20461;-69
2021/04/13 13:25:25;;;;;;;3.50;3.20;;;12.40;58.80;;;;;;4995670;28;20445;-68
2021/04/13 13:28:04;;;;;;;3.20;3.00;;;12.70;58.60;;;;;;4995111;28;20453;-68
2021/04/13 13:30:31;;;;;;;3.20;3.10;;;13.20;58.00;;;;;;4994606;28;20445;-69
2021/04/13 13:32:58;;;;;;;3.40;3.20;;;13.00;53.70;;;;;;4994518;28;20461;-69
2021/04/13 13:35:25;;;;;;;4.23;3.90;;;12.90;52.30;;;;;;4994392;28;20485;-69
2021/04/13 13:37:54;;;;;;;3.80;3.50;;;12.90;56.80;;;;;;4994581;28;20504;-69
2021/04/13 13:40:25;;;;;;;4.30;3.90;;;12.90;54.60;;;;;;4994450;28;20449;-69
2021/04/13 13:42:54;;;;;;;4.50;4.20;;;12.80;53.90;;;;;;4994589;28;20803;-70
2021/04/13 13:45:27;;;;;;;5.10;4.50;;;12.90;54.50;;;;;;4994319;28;20552;-69
2021/04/13 13:47:54;;;;;;;4.83;4.47;;;12.70;54.20;;;;;;4994257;28;20446;-69
2021/04/13 13:50:27;;;;;;;5.47;5.00;;;12.50;56.50;;;;;;4994059;28;20453;-70
2021/04/13 13:52:56;;;;;;;8.30;5.27;;;12.20;56.90;;;;;;4994285;28;20469;-69
2021/04/13 13:55:29;;;;;;;5.20;4.80;;;12.20;58.70;;;;;;4994293;28;20485;-69
2021/04/13 13:58:00;;;;;;;5.17;4.77;;;12.40;57.70;;;;;;4994495;28;20437;-68
2021/04/13 14:00:41;;;;;;;5.50;5.00;;;12.80;58.60;;;;;;4994258;28;20454;-68
2021/04/13 14:03:10;;;;;;;5.30;4.90;;;13.20;58.80;;;;;;4994347;28;20464;-67
2021/04/13 14:05:39;;;;;;;4.80;4.40;;;12.80;56.20;;;;;;4994579;28;20450;-68
2021/04/13 14:08:06;;;;;;;4.87;4.57;;;12.60;56.10;;;;;;4997833;28;20511;-70
2021/04/13 14:10:36;;;;;;;5.20;4.70;;;12.40;57.20;;;;;;4998163;28;20453;-69
2021/04/13 14:13:30;;;;;;;5.10;4.60;;;12.70;58.10;;;;;;4998629;28;20442;-68
2021/04/13 14:15:56;;;;;;;5.00;4.70;;;12.80;57.70;;;;;;4998025;28;20545;-68
2021/04/13 14:18:29;;;;;;;4.57;4.10;;;12.50;55.50;;;;;;5001017;28;20453;-68
2021/04/13 14:21:06;;;;;;;5.40;4.53;;;12.50;56.90;;;;;;5002821;28;20505;-68
2021/04/13 14:23:34;;;;;;;4.70;4.40;;;12.60;56.70;;;;;;5001528;28;20441;-68
2021/04/13 14:26:11;;;;;;;7.67;4.43;;;12.50;55.90;;;;;;5002814;28;20449;-69
2021/04/13 14:28:37;;;;;;;4.70;4.40;;;12.50;55.60;;;;;;5002198;28;20438;-69
2021/04/13 14:31:14;;;;;;;4.97;4.60;;;12.50;55.00;;;;;;5004483;28;20469;-69
2021/04/13 14:33:41;;;;;;;4.47;4.17;;;12.50;53.10;;;;;;5002900;28;20927;-69
2021/04/13 14:36:07;;;;;;;4.97;4.57;;;12.80;54.70;;;;;;5003141;28;20462;-69
2021/04/13 14:38:34;;;;;;;4.30;4.00;;;13.10;54.90;;;;;;5002252;28;20815;-69
2021/04/13 14:41:00;;;;;;;5.20;4.57;;;13.50;54.80;;;;;;5002508;28;20478;-69
2021/04/13 14:43:26;;;;;;;4.50;4.10;;;13.80;51.70;;;;;;5001404;28;20507;-69
2021/04/13 14:45:52;;;;;;;4.63;4.37;;;13.60;53.60;;;;;;5002595;28;20461;-69
2021/04/13 14:48:19;;;;;;;4.30;4.00;;;13.40;49.50;;;;;;5002754;28;20453;-69
2021/04/13 14:50:48;;;;;;;4.57;4.30;;;13.10;51.40;;;;;;5001445;28;20564;-69
2021/04/13 14:53:15;;;;;;;4.47;4.10;;;12.90;52.20;;;;;;5000929;28;20450;-69
2021/04/13 14:55:42;;;;;;;4.40;4.10;;;13.00;51.30;;;;;;4998888;28;20477;-69
2021/04/13 14:58:12;;;;;;;5.50;4.37;;;12.90;51.20;;;;;;4997665;28;20979;-69
2021/04/13 15:00:39;;;;;;;4.73;4.33;;;12.80;52.20;;;;;;4997156;28;20497;-69
2021/04/13 15:03:07;;;;;;;6.47;5.03;;;12.80;53.20;;;;;;4997238;28;20485;-68
2021/04/13 15:05:33;;;;;;;4.90;4.60;;;12.90;52.60;;;;;;4997008;28;20469;-68
2021/04/13 15:08:01;;;;;;;5.30;4.17;;;12.80;52.10;;;;;;4996968;28;20454;-67
2021/04/13 15:10:29;;;;;;;5.13;4.80;;;12.30;52.30;;;;;;4996833;28;20457;-67
2021/04/13 15:12:55;;;;;;;5.03;4.53;;;11.80;55.20;;;;;;5000226;28;20453;-68
2021/04/13 15:15:22;;;;;;;7.43;5.10;;;11.30;54.00;;;;;;5001459;28;20963;-68
2021/04/13 15:17:49;;;;;;;5.13;4.60;;;11.20;54.50;;;;;;5000871;28;20458;-69
2021/04/13 15:20:18;;;;;;;5.97;5.37;;;10.90;54.70;;;;;;5001459;28;20549;-68
2021/04/13 15:22:44;;;;;;;5.23;4.83;;;10.30;55.20;;;;;;5000906;28;20457;-68
2021/04/13 15:25:14;;;;;;;5.13;4.63;;;10.10;56.60;;;;;;5000946;28;20457;-69
2021/04/13 15:27:42;;;;;;;4.93;4.53;;;10.20;57.50;;;;;;5002496;28;20449;-68
2021/04/13 15:30:10;;;;;;;4.43;4.03;;;10.50;55.60;;;;;;5002114;28;20457;-68
2021/04/13 15:32:37;;;;;;;4.40;4.10;;;10.80;56.00;;;;;;5002882;28;20481;-69
2021/04/13 15:35:13;;;;;;;4.93;4.50;;;10.90;54.70;;;;;;5002709;28;20920;-69
2021/04/13 15:37:45;;;;;;;4.53;4.23;;;11.20;51.80;;;;;;5000973;28;20438;-69
2021/04/13 15:40:14;;;;;;;5.23;4.33;;;11.40;52.60;;;;;;4997638;28;20496;-69
2021/04/13 15:42:47;;;;;;;4.00;3.67;;;11.40;52.10;;;;;;4997036;28;20496;-68
2021/04/13 15:45:16;;;;;;;4.30;4.10;;;11.70;54.60;;;;;;4996892;28;20442;-69
2021/04/13 15:47:45;;;;;;;4.77;4.33;;;12.20;53.90;;;;;;4996443;28;20870;-68
2021/04/13 15:50:13;;;;;;;3.47;3.17;;;12.20;52.50;;;;;;4996974;28;20844;-68
2021/04/13 15:52:39;;;;;;;3.47;3.27;;;12.20;51.90;;;;;;4996333;28;20473;-69
2021/04/13 15:55:07;;;;;;;4.00;3.80;;;12.30;50.80;;;;;;4996343;28;20458;-69
2021/04/13 15:57:36;;;;;;;3.60;3.30;;;12.20;50.10;;;;;;4996140;28;20489;-67
2021/04/13 16:00:06;;;;;;;4.00;3.60;;;12.00;51.10;;;;;;4995851;28;20528;-67
2021/04/13 16:02:32;;;;;;;3.17;2.97;;;11.50;51.30;;;;;;4995762;28;20492;-68
2021/04/13 16:04:58;;;;;;;3.43;3.13;;;11.10;50.80;;;;;;4995961;28;20456;-69
2021/04/13 16:07:24;;;;;;;3.03;2.83;;;11.10;50.40;;;;;;4996047;28;20454;-68
2021/04/13 16:09:52;;;;;;;3.30;3.10;;;10.90;49.50;;;;;;4995963;28;20545;-68
2021/04/13 16:12:18;;;;;;;2.90;2.77;;;10.80;49.50;;;;;;4995877;28;20540;-69
2021/04/13 16:14:45;;;;;;;3.47;3.20;;;10.60;48.60;;;;;;4996103;28;20552;-68
2021/04/13 16:17:12;;;;;;;2.83;2.63;;;10.70;50.40;;;;;;4996023;28;20565;-68
2021/04/13 16:19:38;;;;;;;3.10;2.90;;;10.70;50.60;;;;;;4995834;28;20462;-68
2021/04/13 16:22:05;;;;;;;3.83;2.77;;;10.90;48.50;;;;;;4995670;28;20532;-69
2021/04/13 16:24:31;;;;;;;2.60;2.50;;;10.90;48.60;;;;;;4995898;28;20454;-68
2021/04/13 16:26:57;;;;;;;2.87;2.67;;;10.90;48.60;;;;;;4995794;28;20461;-68
2021/04/13 16:29:24;;;;;;;3.10;2.90;;;10.80;49.60;;;;;;4994815;28;20465;-69
2021/04/13 16:31:54;;;;;;;3.30;3.10;;;10.80;50.40;;;;;;4995807;28;20823;-67
2021/04/13 16:34:23;;;;;;;3.37;3.10;;;10.60;50.60;;;;;;4996106;28;20446;-69
2021/04/13 16:36:52;;;;;;;5.63;3.10;;;10.40;51.10;;;;;;4995683;28;20482;-69
2021/04/13 16:39:33;;;;;;;3.20;3.00;;;10.50;51.70;;;;;;4995661;28;20457;-68
2021/04/13 16:42:04;;;;;;;3.23;2.90;;;10.50;51.40;;;;;;4995540;28;20478;-69
2021/04/13 16:44:33;;;;;;;4.37;3.10;;;10.40;50.20;;;;;;4995373;28;20450;-69
2021/04/13 16:47:02;;;;;;;3.60;3.30;;;10.40;50.60;;;;;;4995259;28;20454;-70
2021/04/13 16:49:30;;;;;;;3.60;3.40;;;10.30;50.80;;;;;;4994937;28;21056;-68
2021/04/13 16:52:00;;;;;;;3.63;3.30;;;10.20;51.30;;;;;;4995355;28;20532;-70
2021/04/13 16:54:26;;;;;;;3.70;3.20;;;10.20;51.80;;;;;;4995306;28;20464;-68
2021/04/13 16:56:56;;;;;;;2.97;2.87;;;10.20;52.00;;;;;;4994928;28;20474;-68
2021/04/13 16:59:25;;;;;;;3.43;3.13;;;10.20;51.50;;;;;;4995596;28;20861;-70
2021/04/13 17:01:56;;;;;;;4.07;3.73;;;10.20;51.40;;;;;;4995255;28;20485;-70
2021/04/13 17:04:36;;;;;;;5.63;3.73;;;10.20;52.00;;;;;;4995553;28;20800;-70
2021/04/13 17:07:11;;;;;;;3.57;3.37;;;10.10;51.70;;;;;;4995512;28;20438;-68
2021/04/13 17:09:45;;;;;;;3.90;3.60;;;10.10;51.00;;;;;;4995898;28;20437;-70
2021/04/13 17:12:14;;;;;;;4.60;3.53;;;10.10;50.70;;;;;;4995329;28;20813;-69
2021/04/13 17:14:46;;;;;;;3.13;2.93;;;10.00;51.30;;;;;;4995435;28;20454;-68
2021/04/13 17:17:18;;;;;;;3.13;2.83;;;9.90;52.10;;;;;;4995342;28;20469;-70
2021/04/13 17:19:48;;;;;;;3.13;2.90;;;9.80;52.20;;;;;;4995702;28;20442;-70
2021/04/13 17:22:18;;;;;;;2.90;2.70;;;9.70;52.50;;;;;;4995350;28;20561;-68
2021/04/13 17:24:48;;;;;;;3.20;3.00;;;9.70;53.50;;;;;;4995215;28;20434;-68
2021/04/13 17:27:18;;;;;;;3.93;3.53;;;9.70;53.70;;;;;;4995049;28;20449;-70